Time;durP1;ratioP1;P1;durP2;ratioP2;P2;SDS_P1;SDS_P2;PMS_P1;PMS_P2;Temp;Humidity;BMP_temperature;BMP_pressure;BME280_temperature;BME280_humidity;BME280_pressure;Samples;Min_cycle;Max_cycle;Signal;HPM_P1;HPM_P2
2022/07/21 04:02:54;;;;;;;39.20;36.60;;;20.10;99.90;;;;;;5037278;23;20612;-67
2022/07/21 04:05:21;;;;;;;36.47;34.07;;;20.20;99.90;;;;;;4965713;28;20471;-66
2022/07/21 04:07:50;;;;;;;37.00;34.67;;;20.20;99.90;;;;;;4953159;28;20515;-67
2022/07/21 04:10:18;;;;;;;36.07;33.97;;;20.30;99.90;;;;;;4950878;29;21027;-66
2022/07/21 04:12:46;;;;;;;37.20;34.90;;;20.30;99.90;;;;;;4951202;28;20507;-66
2022/07/21 04:15:13;;;;;;;36.97;34.40;;;20.40;99.90;;;;;;4951409;29;20519;-65
2022/07/21 04:17:40;;;;;;;36.53;34.43;;;20.50;99.90;;;;;;4951338;29;20445;-65
2022/07/21 04:20:10;;;;;;;35.33;33.23;;;20.60;99.90;;;;;;4951162;29;20515;-65
2022/07/21 04:22:37;;;;;;;34.10;32.20;;;20.60;99.90;;;;;;4951112;29;20492;-65
2022/07/21 04:25:04;;;;;;;37.07;34.90;;;20.60;99.90;;;;;;4952972;28;20559;-68
2022/07/21 04:27:32;;;;;;;37.73;35.43;;;20.60;99.90;;;;;;4954922;29;20535;-65
2022/07/21 04:29:58;;;;;;;36.30;34.07;;;20.70;99.90;;;;;;4955140;29;20894;-68
2022/07/21 04:32:25;;;;;;;35.17;33.17;;;20.80;99.90;;;;;;4954642;29;20456;-66
2022/07/21 04:34:51;;;;;;;35.03;33.07;;;20.90;99.90;;;;;;4954708;29;20463;-66
2022/07/21 04:37:19;;;;;;;32.87;30.87;;;20.90;99.90;;;;;;4954345;29;20609;-64
2022/07/21 04:39:46;;;;;;;33.20;31.40;;;20.90;99.90;;;;;;4954444;29;20507;-65
2022/07/21 04:42:13;;;;;;;34.10;32.07;;;20.90;99.90;;;;;;4955079;29;20507;-64
2022/07/21 04:44:39;;;;;;;32.93;31.13;;;21.00;99.90;;;;;;4965491;28;20462;-64
2022/07/21 04:47:06;;;;;;;32.77;30.67;;;21.10;99.90;;;;;;4982252;28;20455;-64
2022/07/21 04:49:33;;;;;;;34.13;31.73;;;21.10;99.90;;;;;;4984799;28;20509;-64
2022/07/21 04:51:59;;;;;;;32.90;30.90;;;21.00;99.90;;;;;;4993440;28;21035;-64
2022/07/21 04:54:27;;;;;;;32.07;29.97;;;21.00;99.90;;;;;;4977299;28;20460;-64
2022/07/21 04:56:55;;;;;;;29.97;28.20;;;21.10;99.90;;;;;;4971827;28;20984;-64
2022/07/21 04:59:21;;;;;;;31.43;29.37;;;21.20;99.90;;;;;;4963241;28;20503;-64
2022/07/21 05:01:48;;;;;;;30.13;27.93;;;21.30;99.90;;;;;;4966360;28;20766;-64
2022/07/21 05:04:15;;;;;;;27.20;25.40;;;21.30;99.90;;;;;;4993243;28;20567;-63
2022/07/21 05:06:42;;;;;;;28.20;26.33;;;21.50;99.90;;;;;;4984365;28;20559;-64
2022/07/21 05:09:09;;;;;;;27.27;25.50;;;21.80;99.90;;;;;;4988173;28;20501;-63
2022/07/21 05:11:37;;;;;;;26.17;24.57;;;22.30;99.90;;;;;;4974935;28;20519;-63
2022/07/21 05:14:04;;;;;;;27.20;25.40;;;22.60;99.90;;;;;;4961689;28;20472;-63
2022/07/21 05:16:31;;;;;;;27.27;25.30;;;22.70;99.90;;;;;;4962985;28;20907;-64
2022/07/21 05:18:58;;;;;;;27.37;25.77;;;22.70;99.90;;;;;;4977981;28;20443;-63
2022/07/21 05:21:24;;;;;;;27.90;25.90;;;22.60;99.90;;;;;;4963417;28;20772;-63
2022/07/21 05:23:51;;;;;;;26.50;24.83;;;22.80;99.90;;;;;;4955168;28;20515;-63
2022/07/21 05:26:17;;;;;;;27.67;25.80;;;23.10;99.90;;;;;;4957410;28;20480;-63
2022/07/21 05:28:46;;;;;;;28.00;25.53;;;23.50;99.90;;;;;;4961055;28;20458;-63
2022/07/21 05:31:12;;;;;;;25.13;23.60;;;23.80;99.90;;;;;;4954494;28;20883;-63
2022/07/21 05:33:39;;;;;;;27.13;25.53;;;24.10;99.90;;;;;;4961690;28;20981;-63
2022/07/21 05:36:06;;;;;;;25.23;23.70;;;24.30;99.90;;;;;;4951786;28;20467;-63
2022/07/21 05:38:33;;;;;;;26.83;25.03;;;24.50;99.90;;;;;;4954067;28;20890;-63
2022/07/21 05:41:02;;;;;;;24.40;22.70;;;24.50;99.90;;;;;;4947459;28;20910;-63
2022/07/21 05:43:29;;;;;;;25.30;23.70;;;24.70;99.90;;;;;;4954013;28;20564;-63
2022/07/21 05:45:57;;;;;;;27.30;25.50;;;25.00;99.90;;;;;;4982154;28;20467;-63
2022/07/21 05:48:24;;;;;;;24.30;22.67;;;25.10;99.90;;;;;;4975893;28;20447;-63
2022/07/21 05:50:51;;;;;;;26.80;24.90;;;25.30;99.90;;;;;;4991907;28;20491;-63
2022/07/21 05:53:18;;;;;;;26.10;24.60;;;24.80;99.90;;;;;;4983391;28;20937;-63
2022/07/21 05:55:45;;;;;;;28.43;26.43;;;24.30;99.90;;;;;;4991409;28;20944;-62
2022/07/21 05:58:11;;;;;;;27.73;26.00;;;23.90;99.90;;;;;;4991715;28;20505;-62
2022/07/21 06:00:38;;;;;;;28.77;26.80;;;23.80;99.90;;;;;;4991655;28;20478;-62
2022/07/21 06:03:06;;;;;;;29.30;27.00;;;23.60;99.90;;;;;;5010218;28;20477;-62
2022/07/21 06:05:33;;;;;;;29.70;27.50;;;23.50;99.90;;;;;;5011196;28;20450;-62
2022/07/21 06:08:00;;;;;;;27.97;26.07;;;23.30;99.90;;;;;;5011326;28;20450;-62
2022/07/21 06:10:27;;;;;;;27.37;25.57;;;23.70;99.90;;;;;;4998482;28;20447;-62
2022/07/21 06:12:54;;;;;;;27.03;25.33;;;23.90;99.90;;;;;;5006427;28;20462;-62
2022/07/21 06:15:21;;;;;;;28.87;26.97;;;24.10;99.90;;;;;;4994425;28;20446;-62
2022/07/21 06:17:47;;;;;;;27.83;25.83;;;23.90;99.90;;;;;;4998645;28;20485;-62
2022/07/21 06:20:15;;;;;;;26.43;24.90;;;23.90;99.90;;;;;;4995585;28;20508;-62
2022/07/21 06:22:42;;;;;;;25.60;24.10;;;24.00;99.90;;;;;;5011286;28;20454;-62
2022/07/21 06:25:10;;;;;;;25.93;24.13;;;24.00;99.90;;;;;;5006671;28;20904;-62
2022/07/21 06:27:36;;;;;;;25.37;23.60;;;24.30;99.90;;;;;;5008938;28;20457;-62
2022/07/21 06:30:04;;;;;;;25.07;22.40;;;25.00;99.90;;;;;;4994751;28;20510;-63
2022/07/21 06:32:31;;;;;;;22.53;20.97;;;25.00;99.90;;;;;;4990687;28;20865;-63
2022/07/21 06:34:58;;;;;;;22.50;21.10;;;24.70;99.90;;;;;;4991543;28;20813;-63
2022/07/21 06:37:26;;;;;;;24.17;22.77;;;25.00;99.90;;;;;;4991185;28;20521;-63
2022/07/21 06:39:52;;;;;;;22.87;21.60;;;25.80;99.90;;;;;;4991027;28;20459;-64
2022/07/21 06:42:19;;;;;;;21.60;20.30;;;26.30;99.90;;;;;;4991060;28;20822;-63
2022/07/21 06:44:45;;;;;;;21.37;20.17;;;27.00;99.90;;;;;;4991067;28;20458;-63
2022/07/21 06:47:12;;;;;;;23.20;21.70;;;27.70;99.90;;;;;;5006299;28;20482;-63
2022/07/21 06:49:39;;;;;;;23.30;22.00;;;28.20;99.90;;;;;;4992432;28;20450;-63
2022/07/21 06:52:06;;;;;;;25.20;23.53;;;28.30;99.90;;;;;;4990679;28;20565;-63
2022/07/21 06:54:34;;;;;;;21.73;20.40;;;27.90;99.90;;;;;;4990903;28;20517;-63
2022/07/21 06:57:00;;;;;;;22.13;20.83;;;27.30;99.90;;;;;;4990780;28;20458;-63
2022/07/21 06:59:27;;;;;;;22.93;21.53;;;27.00;99.90;;;;;;4990780;28;20937;-63
2022/07/21 07:01:53;;;;;;;20.83;19.70;;;27.60;99.90;;;;;;4990183;28;20478;-63
2022/07/21 07:04:20;;;;;;;21.50;20.17;;;27.70;99.90;;;;;;4990714;28;20465;-63
2022/07/21 07:06:50;;;;;;;20.83;19.73;;;28.40;99.90;;;;;;4990717;28;20501;-63
2022/07/21 07:09:16;;;;;;;21.13;20.03;;;29.00;99.90;;;;;;4990844;28;20510;-63
2022/07/21 07:11:46;;;;;;;21.20;20.00;;;29.30;98.80;;;;;;4990847;28;20557;-63
2022/07/21 07:14:13;;;;;;;21.30;20.30;;;29.20;99.90;;;;;;4984086;28;20462;-64
2022/07/21 07:16:40;;;;;;;20.60;19.50;;;29.90;98.70;;;;;;4976451;28;20996;-63
2022/07/21 07:19:07;;;;;;;20.77;19.57;;;30.20;95.90;;;;;;4970724;28;20993;-64
2022/07/21 07:21:33;;;;;;;20.00;18.90;;;30.60;94.50;;;;;;4970539;28;20509;-63
2022/07/21 07:24:01;;;;;;;23.10;21.47;;;31.00;93.20;;;;;;4974651;28;20455;-64
2022/07/21 07:26:28;;;;;;;21.63;20.57;;;30.90;92.70;;;;;;4998231;28;20963;-64
2022/07/21 07:28:56;;;;;;;21.93;20.83;;;31.20;92.20;;;;;;5004826;28;20944;-63
2022/07/21 07:31:23;;;;;;;20.60;19.50;;;31.90;91.30;;;;;;4996866;28;20996;-64
2022/07/21 07:33:49;;;;;;;22.80;20.90;;;32.20;90.50;;;;;;4990103;28;20513;-65
2022/07/21 07:36:16;;;;;;;23.03;21.83;;;32.30;90.50;;;;;;5000265;28;20525;-66
2022/07/21 07:38:43;;;;;;;22.87;21.77;;;32.30;89.80;;;;;;4996279;28;20478;-66
2022/07/21 07:41:09;;;;;;;21.20;20.10;;;32.90;88.10;;;;;;4997944;28;20678;-67
2022/07/21 07:43:36;;;;;;;21.70;20.47;;;33.00;84.50;;;;;;5008500;28;20880;-67
2022/07/21 07:46:05;;;;;;;23.10;21.83;;;31.70;87.50;;;;;;4994467;28;21177;-71
2022/07/21 07:48:34;;;;;;;21.83;20.60;;;31.30;90.40;;;;;;4989990;28;20458;-72
2022/07/21 07:51:00;;;;;;;21.37;20.27;;;31.40;88.90;;;;;;4990493;28;20503;-72
2022/07/21 07:53:27;;;;;;;20.77;19.80;;;30.60;90.70;;;;;;4995100;28;20458;-72
2022/07/21 07:55:54;;;;;;;21.57;20.37;;;30.30;91.30;;;;;;5009555;28;20457;-71
2022/07/21 07:58:21;;;;;;;20.40;19.47;;;29.80;92.00;;;;;;5009173;28;20564;-71
2022/07/21 08:00:48;;;;;;;22.00;20.50;;;29.10;92.70;;;;;;5011488;28;20479;-71
2022/07/21 08:03:16;;;;;;;20.97;19.87;;;28.90;93.60;;;;;;5012573;28;20826;-72
2022/07/21 08:05:43;;;;;;;20.70;19.40;;;29.00;94.50;;;;;;5012695;28;20446;-72
2022/07/21 08:08:10;;;;;;;20.93;19.83;;;30.10;92.90;;;;;;5005269;28;20458;-72
2022/07/21 08:10:37;;;;;;;20.30;19.20;;;31.10;91.50;;;;;;4993301;28;20450;-71
2022/07/21 08:13:04;;;;;;;21.30;20.17;;;32.10;87.70;;;;;;4993587;28;20492;-71
2022/07/21 08:15:31;;;;;;;20.13;19.03;;;33.00;84.90;;;;;;4993331;28;20458;-71
2022/07/21 08:17:58;;;;;;;20.77;19.87;;;33.00;81.10;;;;;;5003670;28;20449;-71
2022/07/21 08:20:26;;;;;;;20.30;19.20;;;32.50;82.40;;;;;;4996374;28;20471;-70
2022/07/21 08:22:53;;;;;;;20.90;19.67;;;32.20;83.20;;;;;;5013653;28;20446;-72
2022/07/21 08:25:19;;;;;;;20.30;19.20;;;31.70;85.30;;;;;;5007641;28;20449;-71
2022/07/21 08:27:46;;;;;;;20.40;19.23;;;31.40;86.00;;;;;;4993843;28;20509;-71
2022/07/21 08:30:13;;;;;;;20.67;19.50;;;31.30;84.90;;;;;;4993929;28;20450;-71
2022/07/21 08:32:40;;;;;;;18.70;17.90;;;31.40;83.70;;;;;;4993691;28;21062;-71
2022/07/21 08:35:08;;;;;;;17.83;17.10;;;31.40;85.30;;;;;;5009329;28;20480;-72
2022/07/21 08:37:36;;;;;;;19.23;18.33;;;31.90;84.90;;;;;;5012935;28;20821;-71
2022/07/21 08:40:04;;;;;;;19.50;18.53;;;32.50;81.10;;;;;;5012488;28;20944;-71
2022/07/21 08:42:31;;;;;;;19.90;18.93;;;32.10;80.90;;;;;;5012464;28;20453;-71
2022/07/21 08:44:58;;;;;;;19.20;18.20;;;31.20;82.80;;;;;;5012456;28;20527;-71
2022/07/21 08:47:26;;;;;;;20.80;19.70;;;30.50;86.00;;;;;;5012159;28;20469;-72
2022/07/21 08:49:54;;;;;;;19.90;18.87;;;30.80;86.40;;;;;;5007478;28;20473;-69
2022/07/21 08:52:21;;;;;;;19.90;18.93;;;31.70;84.10;;;;;;4992639;28;20748;-69
2022/07/21 08:54:49;;;;;;;20.70;19.60;;;32.70;79.40;;;;;;4992618;28;20538;-68
2022/07/21 08:57:16;;;;;;;19.70;18.70;;;33.50;77.10;;;;;;4991740;28;20462;-69
2022/07/21 08:59:43;;;;;;;20.10;19.10;;;33.30;76.80;;;;;;4989267;28;20489;-68
2022/07/21 09:02:26;;;;;;;20.83;19.57;;;32.70;76.80;;;;;;4991670;28;20478;-69
2022/07/21 09:04:54;;;;;;;20.13;19.03;;;32.60;76.80;;;;;;4992316;28;20826;-68
2022/07/21 09:07:22;;;;;;;19.70;18.70;;;32.20;77.50;;;;;;4991579;28;20549;-67
2022/07/21 09:09:57;;;;;;;20.53;19.33;;;31.30;79.30;;;;;;4991872;28;20454;-68
2022/07/21 09:12:24;;;;;;;19.70;18.60;;;30.50;83.20;;;;;;4991861;28;20509;-68
2022/07/21 09:14:51;;;;;;;18.03;17.23;;;30.20;85.00;;;;;;4992011;28;20477;-69
2022/07/21 09:17:19;;;;;;;18.80;17.97;;;30.90;84.60;;;;;;4991599;28;20909;-69
2022/07/21 09:19:48;;;;;;;19.00;18.20;;;32.10;81.00;;;;;;4991590;28;20941;-69
2022/07/21 09:22:18;;;;;;;20.70;19.77;;;33.80;75.70;;;;;;4991703;28;20461;-70
2022/07/21 09:24:50;;;;;;;18.40;17.60;;;34.50;70.70;;;;;;4991647;28;20451;-69
2022/07/21 09:27:19;;;;;;;19.03;18.13;;;35.70;68.50;;;;;;4991679;28;20459;-70
2022/07/21 09:29:47;;;;;;;19.70;18.80;;;35.70;64.00;;;;;;4991822;28;20446;-69
2022/07/21 09:32:20;;;;;;;19.87;18.97;;;35.70;62.40;;;;;;4991267;28;20589;-69
2022/07/21 09:34:49;;;;;;;18.90;18.00;;;35.40;62.70;;;;;;4991561;28;20451;-68
2022/07/21 09:37:16;;;;;;;19.00;18.00;;;33.70;66.50;;;;;;4991579;28;20455;-69
2022/07/21 09:39:45;;;;;;;17.73;16.80;;;32.10;69.10;;;;;;4991701;28;20461;-69
2022/07/21 09:42:22;;;;;;;17.80;16.90;;;32.40;70.70;;;;;;4991516;28;20802;-67
2022/07/21 09:44:52;;;;;;;17.77;16.97;;;33.20;66.10;;;;;;4990981;28;20446;-68
2022/07/21 09:47:22;;;;;;;18.67;17.73;;;33.40;65.80;;;;;;4991595;28;20882;-69
2022/07/21 09:49:48;;;;;;;18.50;17.70;;;33.70;64.40;;;;;;4991890;28;20458;-68
2022/07/21 09:52:24;;;;;;;17.83;16.93;;;33.70;65.30;;;;;;4991786;28;20849;-68
2022/07/21 09:54:51;;;;;;;18.40;17.33;;;34.60;62.80;;;;;;4992063;28;20477;-68
2022/07/21 09:57:21;;;;;;;18.07;17.17;;;34.10;64.20;;;;;;4991736;28;20455;-68
2022/07/21 09:59:50;;;;;;;18.37;17.47;;;33.90;64.10;;;;;;4995146;28;20494;-68
2022/07/21 10:02:19;;;;;;;18.23;17.43;;;33.30;66.60;;;;;;5007637;28;20467;-69
2022/07/21 10:04:50;;;;;;;17.90;17.10;;;33.70;66.00;;;;;;4991317;28;20881;-69
2022/07/21 10:07:18;;;;;;;17.80;16.53;;;34.30;64.20;;;;;;5001232;28;20453;-68
2022/07/21 10:09:45;;;;;;;17.60;16.80;;;35.00;60.50;;;;;;5011228;28;20449;-69
2022/07/21 10:12:12;;;;;;;18.00;17.10;;;35.80;58.20;;;;;;4994250;28;20601;-69
2022/07/21 10:14:40;;;;;;;19.87;18.77;;;36.10;58.40;;;;;;4991070;28;20944;-69
2022/07/21 10:17:07;;;;;;;18.43;17.43;;;36.10;58.00;;;;;;4991224;28;20454;-69
2022/07/21 10:19:40;;;;;;;18.97;18.17;;;36.30;57.20;;;;;;4990957;28;20455;-69
2022/07/21 10:22:13;;;;;;;18.30;17.40;;;36.90;56.00;;;;;;4992096;28;20450;-68
2022/07/21 10:24:40;;;;;;;19.17;18.27;;;37.90;54.70;;;;;;4999617;28;20458;-69
2022/07/21 10:27:09;;;;;;;18.87;17.97;;;38.30;51.90;;;;;;5001501;28;20795;-68
2022/07/21 10:30:00;;;;;;;19.50;18.60;;;37.90;51.40;;;;;;5010977;28;20814;-69
2022/07/21 10:32:32;;;;;;;17.47;16.77;;;37.90;50.90;;;;;;4991697;28;20486;-70
2022/07/21 10:35:04;;;;;;;19.20;18.43;;;38.90;49.20;;;;;;4991381;28;20450;-69
2022/07/21 10:37:50;;;;;;;19.13;17.83;;;37.80;50.20;;;;;;4991332;28;20470;-69
2022/07/21 10:40:39;;;;;;;20.10;19.13;;;36.80;51.90;;;;;;5004147;28;20493;-69
2022/07/21 10:43:38;;;;;;;18.10;17.30;;;36.00;52.50;;;;;;5010800;28;20485;-68
2022/07/21 10:46:37;;;;;;;17.60;16.57;;;35.10;55.20;;;;;;5010759;28;20457;-69
2022/07/21 10:49:08;;;;;;;18.83;17.93;;;33.60;59.00;;;;;;5010853;28;20537;-67
2022/07/21 10:51:36;;;;;;;17.80;17.00;;;32.30;61.80;;;;;;5010494;28;20461;-68
2022/07/21 10:54:23;;;;;;;18.13;17.33;;;31.90;63.00;;;;;;5010304;28;20486;-67
2022/07/21 10:57:27;;;;;;;17.80;16.90;;;31.20;64.20;;;;;;5000663;28;20460;-67
2022/07/21 11:00:20;;;;;;;19.13;18.23;;;30.70;65.20;;;;;;4990320;28;20516;-69
2022/07/21 11:02:50;;;;;;;18.50;17.50;;;30.00;68.70;;;;;;4990445;28;20489;-67
2022/07/21 11:05:17;;;;;;;16.53;15.70;;;29.60;70.40;;;;;;4990343;28;20458;-69
2022/07/21 11:08:12;;;;;;;16.53;15.83;;;29.50;72.50;;;;;;4990700;28;20458;-69
2022/07/21 11:10:40;;;;;;;18.10;17.20;;;29.70;74.20;;;;;;4990598;28;20450;-68
2022/07/21 11:13:07;;;;;;;16.73;15.80;;;30.40;74.00;;;;;;4990204;28;20490;-68
2022/07/21 11:15:49;;;;;;;18.23;17.20;;;31.10;70.20;;;;;;4994538;28;20498;-68
2022/07/21 11:18:21;;;;;;;18.70;17.80;;;31.90;68.30;;;;;;5001467;28;20472;-68
2022/07/21 11:21:18;;;;;;;16.87;16.20;;;32.00;65.30;;;;;;4993568;28;20445;-68
2022/07/21 11:23:47;;;;;;;16.47;15.77;;;32.10;62.90;;;;;;4924649;29;20445;-68
2022/07/21 11:26:16;;;;;;;17.17;16.37;;;32.30;60.70;;;;;;4989342;28;20493;-69
2022/07/21 11:28:43;;;;;;;16.63;15.93;;;32.40;59.90;;;;;;4993346;28;20478;-68
2022/07/21 11:31:13;;;;;;;17.70;16.50;;;34.00;57.90;;;;;;4991838;28;20487;-68
2022/07/21 11:33:44;;;;;;;17.20;16.40;;;34.00;58.40;;;;;;4994599;28;20493;-68
2022/07/21 11:36:11;;;;;;;17.30;16.40;;;33.00;60.30;;;;;;4995505;28;20478;-68
2022/07/21 11:38:37;;;;;;;18.47;17.57;;;32.40;62.40;;;;;;5012331;28;20449;-68
2022/07/21 11:41:18;;;;;;;17.53;16.73;;;32.70;62.40;;;;;;5006911;28;20455;-68
2022/07/21 11:43:46;;;;;;;17.70;16.87;;;34.10;60.00;;;;;;4993785;28;20474;-69
2022/07/21 11:46:13;;;;;;;18.20;17.30;;;35.20;56.60;;;;;;4994581;28;20458;-69
2022/07/21 11:48:41;;;;;;;17.27;16.43;;;35.10;55.90;;;;;;4998419;28;20468;-68
2022/07/21 11:51:08;;;;;;;17.07;16.17;;;34.60;56.60;;;;;;5007153;28;20901;-68
2022/07/21 11:53:36;;;;;;;17.50;16.30;;;34.10;56.90;;;;;;5006718;28;20535;-68
2022/07/21 11:56:02;;;;;;;16.50;15.77;;;33.60;56.80;;;;;;4995519;28;20453;-68
2022/07/21 11:58:29;;;;;;;16.83;16.03;;;33.20;57.20;;;;;;4994904;28;20450;-69
2022/07/21 12:01:06;;;;;;;16.60;15.80;;;32.40;57.60;;;;;;5001178;28;20915;-69
2022/07/21 12:03:33;;;;;;;15.70;15.10;;;32.00;59.90;;;;;;5012009;28;20814;-68
2022/07/21 12:06:02;;;;;;;16.13;15.30;;;31.70;59.40;;;;;;5000951;28;20447;-69
2022/07/21 12:08:30;;;;;;;15.73;14.93;;;31.80;58.00;;;;;;4992843;28;20457;-68
2022/07/21 12:11:08;;;;;;;16.70;15.90;;;32.00;58.00;;;;;;4993806;28;20458;-68
2022/07/21 12:13:55;;;;;;;17.43;16.73;;;32.10;59.30;;;;;;4994017;28;20517;-69
2022/07/21 12:16:22;;;;;;;16.10;15.20;;;31.80;59.30;;;;;;4993775;28;20549;-69
2022/07/21 12:18:48;;;;;;;16.43;15.73;;;31.60;59.30;;;;;;4993614;28;20904;-69
2022/07/21 12:21:17;;;;;;;17.20;16.30;;;31.30;58.90;;;;;;4993911;28;20467;-70
2022/07/21 12:23:43;;;;;;;16.67;15.73;;;31.10;59.80;;;;;;5002815;28;20466;-69
2022/07/21 12:26:22;;;;;;;17.47;16.67;;;31.20;60.30;;;;;;4995881;28;20940;-69
2022/07/21 12:28:53;;;;;;;16.70;16.00;;;31.80;58.60;;;;;;5013330;28;20449;-69
2022/07/21 12:31:23;;;;;;;18.43;17.60;;;33.10;56.60;;;;;;5003595;28;20508;-70
2022/07/21 12:33:50;;;;;;;17.00;16.20;;;34.60;53.40;;;;;;4993244;28;20490;-69
2022/07/21 12:36:21;;;;;;;17.60;16.80;;;36.10;52.30;;;;;;4993623;28;20451;-69
2022/07/21 12:38:50;;;;;;;18.17;17.27;;;36.70;50.10;;;;;;4994368;28;20505;-70
2022/07/21 12:41:19;;;;;;;17.40;16.70;;;37.40;49.60;;;;;;5013436;28;20453;-70
2022/07/21 12:43:54;;;;;;;18.93;18.03;;;37.70;46.40;;;;;;5002628;28;20482;-69
2022/07/21 12:46:21;;;;;;;17.47;16.67;;;36.60;48.10;;;;;;5001387;28;20445;-69
2022/07/21 12:48:48;;;;;;;19.40;18.40;;;35.40;52.10;;;;;;5004666;28;20457;-69
2022/07/21 12:51:16;;;;;;;18.87;17.87;;;33.50;56.00;;;;;;4986877;28;20466;-69
2022/07/21 12:53:47;;;;;;;21.27;19.87;;;32.60;58.60;;;;;;4993047;28;20545;-69
2022/07/21 12:56:18;;;;;;;23.47;21.97;;;32.10;60.60;;;;;;4992897;28;20447;-68
2022/07/21 12:58:45;;;;;;;23.13;21.83;;;31.30;62.30;;;;;;4992911;28;20791;-69
2022/07/21 13:01:13;;;;;;;20.43;19.37;;;30.80;64.50;;;;;;4997058;28;20466;-69
2022/07/21 13:03:40;;;;;;;20.37;19.07;;;30.40;66.40;;;;;;5012098;28;20446;-69
2022/07/21 13:06:08;;;;;;;19.90;18.90;;;30.00;66.20;;;;;;5012642;28;20457;-69
2022/07/21 13:08:36;;;;;;;19.77;18.73;;;30.70;65.70;;;;;;5012144;28;20488;-69
2022/07/21 13:11:05;;;;;;;18.20;17.40;;;32.20;62.10;;;;;;5012268;28;20879;-69
2022/07/21 13:13:32;;;;;;;20.53;19.53;;;32.70;59.70;;;;;;5012061;28;20485;-69
2022/07/21 13:15:59;;;;;;;18.93;17.97;;;32.40;59.90;;;;;;5012496;28;20455;-69
2022/07/21 13:18:26;;;;;;;19.00;18.10;;;31.90;61.90;;;;;;5006064;28;20513;-69
2022/07/21 13:20:53;;;;;;;19.00;17.90;;;31.20;63.00;;;;;;4992693;28;20463;-70
2022/07/21 13:23:21;;;;;;;18.33;17.33;;;30.70;65.00;;;;;;4992200;28;20474;-69
2022/07/21 13:25:49;;;;;;;18.10;17.20;;;30.90;64.70;;;;;;4992516;28;20546;-70
2022/07/21 13:28:17;;;;;;;19.10;17.73;;;31.10;65.00;;;;;;4990723;28;20513;-69
2022/07/21 13:30:45;;;;;;;19.53;18.63;;;31.10;64.60;;;;;;4998152;28;20517;-69
2022/07/21 13:33:11;;;;;;;18.47;17.57;;;31.00;65.40;;;;;;5007468;28;20553;-69
2022/07/21 13:35:38;;;;;;;19.43;18.37;;;30.80;65.60;;;;;;4992600;28;20447;-70
2022/07/21 13:38:05;;;;;;;18.30;17.40;;;30.70;65.20;;;;;;5001975;28;20457;-69
2022/07/21 13:40:32;;;;;;;19.13;18.23;;;30.60;67.60;;;;;;5003580;28;20490;-69
2022/07/21 13:42:58;;;;;;;17.10;16.30;;;31.90;64.10;;;;;;5007685;28;20449;-69
2022/07/21 13:45:26;;;;;;;20.60;19.43;;;32.30;62.50;;;;;;4994142;28;20862;-70
2022/07/21 13:47:53;;;;;;;19.10;18.10;;;32.70;63.00;;;;;;4976766;28;20841;-70
2022/07/21 13:50:20;;;;;;;18.90;17.90;;;33.50;62.00;;;;;;4992303;28;20455;-70
2022/07/21 13:52:46;;;;;;;19.60;18.60;;;33.70;59.10;;;;;;4990342;28;20562;-69
2022/07/21 13:55:13;;;;;;;18.83;17.87;;;34.00;58.80;;;;;;4991548;28;20454;-70
2022/07/21 13:57:40;;;;;;;19.20;18.27;;;33.90;58.60;;;;;;4991065;28;20513;-69
2022/07/21 14:00:09;;;;;;;20.77;19.77;;;34.30;57.80;;;;;;4997550;28;20545;-68
2022/07/21 14:02:38;;;;;;;18.23;17.23;;;34.00;57.50;;;;;;5007162;28;20553;-68
2022/07/21 14:05:05;;;;;;;18.97;18.10;;;33.30;58.30;;;;;;5010567;28;20816;-69
2022/07/21 14:07:32;;;;;;;19.40;18.50;;;33.30;58.50;;;;;;5000826;28;20470;-68
2022/07/21 14:09:59;;;;;;;19.63;18.63;;;33.20;58.70;;;;;;4991916;28;20855;-68
2022/07/21 14:12:26;;;;;;;18.90;18.10;;;33.30;58.80;;;;;;4991840;28;20449;-68
2022/07/21 14:14:52;;;;;;;18.93;17.83;;;33.00;58.40;;;;;;4992233;28;20509;-68
2022/07/21 14:17:19;;;;;;;18.73;17.93;;;32.90;58.70;;;;;;4992198;28;20470;-69
2022/07/21 14:19:48;;;;;;;19.30;18.50;;;33.40;58.70;;;;;;4988336;28;20474;-70
2022/07/21 14:22:16;;;;;;;19.57;18.60;;;34.20;56.70;;;;;;4991196;28;20817;-69
2022/07/21 14:27:27;;;;;;;19.47;18.50;;;34.40;54.30;;;;;;4988682;28;20553;-69
2022/07/21 14:29:53;;;;;;;19.00;17.90;;;33.90;54.50;;;;;;4990576;28;20530;-69
2022/07/21 14:32:21;;;;;;;17.20;16.40;;;33.40;56.20;;;;;;4992701;28;20442;-69
2022/07/21 14:34:50;;;;;;;19.03;18.23;;;33.10;56.30;;;;;;4988367;28;20494;-69
2022/07/21 14:37:18;;;;;;;20.23;19.20;;;32.40;57.80;;;;;;4993032;28;20825;-69
2022/07/21 14:39:45;;;;;;;18.80;17.90;;;32.30;58.30;;;;;;4988475;28;20945;-69
2022/07/21 14:42:11;;;;;;;18.60;17.70;;;32.20;57.40;;;;;;4990760;28;20447;-69
2022/07/21 14:44:39;;;;;;;19.13;18.03;;;32.10;57.20;;;;;;4990607;28;20443;-69
2022/07/21 14:47:06;;;;;;;18.70;17.80;;;32.00;58.10;;;;;;4990552;28;20451;-69
2022/07/21 14:49:34;;;;;;;18.00;17.13;;;32.20;57.90;;;;;;4990707;28;20478;-69
2022/07/21 14:52:03;;;;;;;19.03;18.13;;;31.80;57.50;;;;;;4990572;28;20517;-69
2022/07/21 14:54:30;;;;;;;18.60;17.57;;;31.70;58.60;;;;;;4990643;28;20484;-69
2022/07/21 14:56:56;;;;;;;18.20;17.40;;;31.40;59.10;;;;;;4990870;28;20550;-69
2022/07/21 14:59:23;;;;;;;19.07;17.90;;;31.00;59.20;;;;;;4990196;28;20521;-69
2022/07/21 15:01:50;;;;;;;17.23;16.53;;;31.00;59.60;;;;;;4990106;28;20482;-69
2022/07/21 15:04:17;;;;;;;18.67;17.87;;;31.20;59.60;;;;;;4989917;28;20826;-69
2022/07/21 15:06:45;;;;;;;18.90;18.00;;;31.10;59.10;;;;;;4987836;28;20817;-69
2022/07/21 15:09:13;;;;;;;18.03;16.97;;;31.20;59.30;;;;;;4990473;28;20444;-69
2022/07/21 15:11:40;;;;;;;17.37;16.57;;;31.10;59.10;;;;;;4990016;28;20447;-69
2022/07/21 15:14:08;;;;;;;17.47;16.67;;;30.60;60.30;;;;;;4989952;28;20493;-69
2022/07/21 15:16:34;;;;;;;18.70;17.63;;;30.40;61.30;;;;;;4990834;28;20466;-69
2022/07/21 15:19:01;;;;;;;17.40;16.60;;;30.10;62.10;;;;;;4990858;28;20521;-68
2022/07/21 15:21:28;;;;;;;17.73;17.00;;;30.10;63.60;;;;;;4991111;28;20578;-69
2022/07/21 15:23:54;;;;;;;18.67;17.87;;;30.30;62.90;;;;;;4990871;28;20501;-68
2022/07/21 15:26:23;;;;;;;18.27;17.47;;;30.40;61.90;;;;;;4990412;28;20489;-69
2022/07/21 15:28:49;;;;;;;17.03;16.33;;;30.50;61.70;;;;;;4990919;28;20478;-68
2022/07/21 15:31:16;;;;;;;17.43;16.53;;;30.60;62.70;;;;;;4991169;28;20442;-69
2022/07/21 15:33:43;;;;;;;19.10;18.03;;;30.70;62.70;;;;;;4990892;28;20889;-68
2022/07/21 15:36:10;;;;;;;15.90;14.80;;;30.70;61.70;;;;;;4990511;28;20450;-69
2022/07/21 15:38:37;;;;;;;17.13;16.33;;;30.70;60.50;;;;;;5006785;28;20456;-70
2022/07/21 15:41:03;;;;;;;16.80;16.10;;;30.60;60.70;;;;;;5010074;28;20932;-69
2022/07/21 15:43:31;;;;;;;17.97;16.80;;;30.50;60.90;;;;;;5010714;28;20480;-69
2022/07/21 15:45:58;;;;;;;16.93;16.23;;;30.30;61.40;;;;;;4992985;28;20768;-69
2022/07/21 15:48:25;;;;;;;18.60;17.80;;;30.50;60.80;;;;;;4971276;28;20563;-69
2022/07/21 15:50:52;;;;;;;18.10;17.27;;;30.20;61.10;;;;;;4970532;28;20462;-69
2022/07/21 15:53:18;;;;;;;18.63;17.73;;;30.10;61.90;;;;;;4969913;28;20460;-69
2022/07/21 15:55:45;;;;;;;18.33;17.30;;;30.10;61.90;;;;;;4970740;28;20949;-69
2022/07/21 15:58:12;;;;;;;17.37;16.57;;;30.10;62.50;;;;;;4971048;28;20459;-67
2022/07/21 16:00:40;;;;;;;17.60;16.80;;;29.90;62.50;;;;;;4971112;28;20480;-69
2022/07/21 16:03:06;;;;;;;18.43;17.53;;;29.90;63.50;;;;;;4970842;28;20488;-70
2022/07/21 16:05:34;;;;;;;17.00;16.17;;;29.90;62.90;;;;;;4968918;28;20635;-66
2022/07/21 16:08:01;;;;;;;17.83;17.03;;;30.10;63.30;;;;;;5004394;28;20496;-67
2022/07/21 16:10:28;;;;;;;16.37;15.63;;;30.30;62.50;;;;;;5009880;28;20482;-68
2022/07/21 16:12:56;;;;;;;18.13;17.10;;;30.30;62.60;;;;;;5010269;28;21057;-69
2022/07/21 16:15:23;;;;;;;17.40;16.60;;;30.50;61.80;;;;;;5009888;28;20520;-70
2022/07/21 16:17:51;;;;;;;16.77;15.83;;;30.60;61.10;;;;;;5009917;28;20500;-68
2022/07/21 16:20:21;;;;;;;17.70;16.93;;;30.40;60.50;;;;;;5010380;28;20462;-69
2022/07/21 16:22:48;;;;;;;17.40;16.40;;;30.40;61.20;;;;;;5013620;28;20457;-69
2022/07/21 16:25:16;;;;;;;16.07;15.40;;;30.20;62.60;;;;;;5014079;28;21244;-69
2022/07/21 16:27:43;;;;;;;17.23;16.43;;;30.10;62.70;;;;;;5013513;28;20450;-67
2022/07/21 16:30:12;;;;;;;17.10;16.40;;;29.90;62.00;;;;;;5013325;28;20461;-68
2022/07/21 16:32:39;;;;;;;16.63;15.83;;;29.90;62.60;;;;;;5013200;28;20458;-68
2022/07/21 16:35:07;;;;;;;17.97;17.07;;;29.80;63.70;;;;;;5012916;28;21043;-68
2022/07/21 16:37:35;;;;;;;16.40;15.60;;;29.60;64.00;;;;;;5013362;28;20561;-70
2022/07/21 16:40:02;;;;;;;16.30;15.50;;;29.60;64.70;;;;;;5013223;28;20450;-68